Time;durP1;ratioP1;P1;durP2;ratioP2;P2;SDS_P1;SDS_P2;PMS_P1;PMS_P2;Temp;Humidity;BMP_temperature;BMP_pressure;BME280_temperature;BME280_humidity;BME280_pressure;Samples;Min_cycle;Max_cycle;Signal;HPM_P1;HPM_P2
2024/01/14 00:03:51;;;;;;;0.00;0.00;;;;;;;-145.06;100.00;55202.88;10463784;28;20024;-73
2024/01/14 00:08:53;;;;;;;0.00;0.00;;;;;;;-145.06;100.00;55213.00;10458466;28;20071;-73
2024/01/14 00:13:53;;;;;;;0.00;0.00;;;;;;;-145.06;100.00;55215.03;10458569;28;20112;-73
2024/01/14 00:18:54;;;;;;;0.00;0.00;;;;;;;-145.06;100.00;55208.97;10464032;28;20084;-73
2024/01/14 00:23:55;;;;;;;0.00;0.00;;;;;;;-145.06;100.00;55136.03;10459012;28;20104;-73
2024/01/14 00:28:57;;;;;;;0.00;0.00;;;;;;;-145.06;100.00;55095.50;10458313;28;20021;-73
2024/01/14 00:33:57;;;;;;;0.00;0.00;;;;;;;-145.06;100.00;55052.97;10445835;28;20087;-73
2024/01/14 00:38:58;;;;;;;0.00;0.00;;;;;;;-145.06;100.00;55002.31;10457395;28;20052;-73
2024/01/14 00:43:58;;;;;;;0.00;0.00;;;;;;;-145.06;100.00;54992.19;10457753;28;20021;-73
2024/01/14 00:48:58;;;;;;;0.00;0.00;;;;;;;-145.06;100.00;54969.91;10458010;28;20028;-73
2024/01/14 00:53:59;;;;;;;0.00;0.00;;;;;;;-145.06;100.00;54953.72;10456296;28;20028;-72
2024/01/14 00:58:59;;;;;;;0.00;0.00;;;;;;;-145.06;100.00;54884.84;10455944;28;20025;-73
2024/01/14 01:03:59;;;;;;;0.00;0.00;;;;;;;-145.06;100.00;54868.63;10462082;28;20283;-73
2024/01/14 01:09:03;;;;;;;0.00;0.00;;;;;;;-145.06;100.00;54864.59;10460544;28;20375;-73
2024/01/14 01:14:03;;;;;;;0.00;0.00;;;;;;;-145.06;100.00;54901.03;10439305;28;20025;-73
2024/01/14 01:19:07;;;;;;;0.00;0.00;;;;;;;-145.06;100.00;54937.50;10454886;28;20409;-73
2024/01/14 01:24:08;;;;;;;0.00;0.00;;;;;;;-145.06;100.00;54941.56;10455161;28;20340;-73
2024/01/14 01:29:09;;;;;;;0.00;0.00;;;;;;;-145.06;100.00;54963.84;10454570;28;20052;-73
2024/01/14 01:34:09;;;;;;;0.00;0.00;;;;;;;-145.06;100.00;54911.16;10459716;28;20025;-73
2024/01/14 01:39:10;;;;;;;0.00;0.00;;;;;;;-145.06;100.00;54923.31;10453234;28;20312;-72
2024/01/14 01:44:10;;;;;;;0.00;0.00;;;;;;;-145.06;100.00;54913.19;10453025;28;20496;-72
2024/01/14 01:49:14;;;;;;;0.00;0.00;;;;;;;-145.06;100.00;54886.88;10453606;28;20053;-73
2024/01/14 01:54:21;;;;;;;0.00;0.00;;;;;;;-145.06;100.00;54919.28;10459437;28;20426;-73
2024/01/14 01:59:22;;;;;;;0.00;0.00;;;;;;;-145.06;100.00;54915.22;10461684;28;20036;-73
2024/01/14 02:04:28;;;;;;;0.00;0.00;;;;;;;-145.06;100.00;54953.72;10464543;28;20024;-73
2024/01/14 02:09:28;;;;;;;0.00;0.00;;;;;;;-145.06;100.00;54925.34;10464615;28;20029;-73
2024/01/14 02:14:32;;;;;;;0.00;0.00;;;;;;;-145.06;100.00;54945.59;10459096;28;20025;-73
2024/01/14 02:19:32;;;;;;;0.10;0.10;;;;;;;-145.06;100.00;54978.03;10440004;28;20335;-73
2024/01/14 02:24:34;;;;;;;0.00;0.00;;;;;;;-145.06;100.00;54951.69;10458354;28;20021;-73
2024/01/14 02:29:38;;;;;;;0.00;0.00;;;;;;;-145.06;100.00;54947.63;10468087;28;20114;-73
2024/01/14 02:34:38;;;;;;;0.00;0.00;;;;;;;-145.06;100.00;54925.34;10452263;28;20095;-73
2024/01/14 02:39:38;;;;;;;0.00;0.00;;;;;;;-145.06;100.00;54937.50;10458490;28;20393;-73
2024/01/14 02:44:39;;;;;;;0.00;0.00;;;;;;;-145.06;100.00;54925.34;10469486;28;20027;-73
2024/01/14 02:49:39;;;;;;;0.00;0.00;;;;;;;-145.06;100.00;54937.50;10433594;28;20086;-73
2024/01/14 02:54:40;;;;;;;0.00;0.00;;;;;;;-145.06;100.00;54953.72;10450689;28;20402;-73
2024/01/14 02:59:40;;;;;;;0.00;0.00;;;;;;;-145.06;100.00;55024.59;10463375;28;20017;-73
2024/01/14 03:04:40;;;;;;;0.00;0.00;;;;;;;-145.06;100.00;55014.47;10451038;28;20021;-73
2024/01/14 03:09:41;;;;;;;0.00;0.00;;;;;;;-145.06;100.00;55008.41;10470545;28;20020;-73
2024/01/14 03:14:41;;;;;;;0.00;0.00;;;;;;;-145.06;100.00;55026.63;10456218;28;20033;-73
2024/01/14 03:19:41;;;;;;;0.00;0.00;;;;;;;-145.06;100.00;55030.69;10453971;28;20016;-73
2024/01/14 03:24:42;;;;;;;0.00;0.00;;;;;;;-145.06;100.00;55085.38;10451673;28;20105;-73
2024/01/14 03:29:43;;;;;;;0.00;0.00;;;;;;;-145.06;100.00;55131.97;10466546;28;20021;-73
2024/01/14 03:34:43;;;;;;;0.00;0.00;;;;;;;-145.06;100.00;55152.22;10452097;28;20048;-73
2024/01/14 03:39:44;;;;;;;0.00;0.00;;;;;;;-145.06;100.00;55164.38;10453553;28;20017;-73
2024/01/14 03:44:44;;;;;;;0.00;0.00;;;;;;;-145.06;100.00;55093.47;10455564;28;20015;-73
2024/01/14 03:49:45;;;;;;;0.00;0.00;;;;;;;-145.06;100.00;55042.84;10455720;28;20028;-73
2024/01/14 03:54:45;;;;;;;0.00;0.00;;;;;;;-145.06;100.00;55059.03;10440632;28;20280;-73
2024/01/14 03:59:46;;;;;;;0.00;0.00;;;;;;;-145.06;100.00;54986.13;10449659;28;20532;-73
2024/01/14 04:04:46;;;;;;;0.00;0.00;;;;;;;-145.06;100.00;55046.91;10455724;28;20025;-73
2024/01/14 04:09:46;;;;;;;0.00;0.00;;;;;;;-145.06;100.00;54988.16;10451129;28;20027;-73
2024/01/14 04:14:46;;;;;;;0.00;0.00;;;;;;;-145.06;100.00;54982.06;10450107;28;20025;-73
2024/01/14 04:19:47;;;;;;;0.00;0.00;;;;;;;-145.06;100.00;54996.25;10451898;28;20311;-73
2024/01/14 04:24:47;;;;;;;0.00;0.00;;;;;;;-145.06;100.00;54982.06;10455557;28;20264;-73
2024/01/14 04:29:47;;;;;;;0.00;0.00;;;;;;;-145.06;100.00;55038.78;10448858;28;20033;-73
2024/01/14 04:34:48;;;;;;;0.00;0.00;;;;;;;-145.06;100.00;54988.16;10452496;28;20093;-72
2024/01/14 04:39:48;;;;;;;0.00;0.00;;;;;;;-145.06;100.00;54994.22;10451179;28;20021;-72
2024/01/14 04:44:48;;;;;;;0.00;0.00;;;;;;;-145.06;100.00;55024.59;10452598;28;20017;-72
2024/01/14 04:49:48;;;;;;;0.00;0.00;;;;;;;-145.06;100.00;55022.59;10455842;28;20021;-72
2024/01/14 04:54:49;;;;;;;0.00;0.00;;;;;;;-145.06;100.00;55038.78;10455092;28;20017;-72
2024/01/14 04:59:50;;;;;;;0.00;0.00;;;;;;;-145.06;100.00;55050.94;10455434;28;20021;-73
2024/01/14 05:04:51;;;;;;;0.00;0.00;;;;;;;-145.06;100.00;55071.19;10459837;28;20398;-72
2024/01/14 05:09:51;;;;;;;0.00;0.00;;;;;;;-145.06;100.00;55144.13;10458534;28;20021;-72
2024/01/14 05:14:51;;;;;;;0.00;0.00;;;;;;;-145.06;100.00;55134.00;10460777;28;20017;-72
2024/01/14 05:19:52;;;;;;;0.00;0.00;;;;;;;-145.06;100.00;55144.13;10454497;28;20208;-72
2024/01/14 05:24:52;;;;;;;0.00;0.00;;;;;;;-145.06;100.00;55115.78;10457945;28;20470;-73
2024/01/14 05:29:53;;;;;;;0.00;0.00;;;;;;;-145.06;100.00;55042.84;10455017;28;20086;-72
2024/01/14 05:34:54;;;;;;;0.00;0.00;;;;;;;-145.06;100.00;54998.28;10463272;28;20017;-73
2024/01/14 05:39:55;;;;;;;0.00;0.00;;;;;;;-145.06;100.00;54994.22;10459394;28;20413;-73
2024/01/14 05:44:55;;;;;;;0.00;0.00;;;;;;;-145.06;100.00;54994.22;10456827;28;20122;-73
2024/01/14 05:49:55;;;;;;;0.00;0.00;;;;;;;-145.06;100.00;54969.91;10453946;28;20017;-73
2024/01/14 05:54:56;;;;;;;0.00;0.00;;;;;;;-145.06;100.00;54971.94;10456755;28;20484;-73
2024/01/14 05:59:56;;;;;;;0.00;0.00;;;;;;;-145.06;100.00;54957.75;10456236;28;20493;-73
2024/01/14 06:04:57;;;;;;;0.00;0.00;;;;;;;-145.06;100.00;54951.69;10458630;28;20021;-73
2024/01/14 06:09:57;;;;;;;0.00;0.00;;;;;;;-145.06;100.00;54951.69;10452625;28;20375;-73
2024/01/14 06:14:58;;;;;;;0.00;0.00;;;;;;;-145.06;100.00;54925.34;10456525;28;20025;-73
2024/01/14 06:19:58;;;;;;;0.00;0.00;;;;;;;-145.06;100.00;54949.66;10461306;28;20028;-73
2024/01/14 06:24:58;;;;;;;0.00;0.00;;;;;;;-145.06;100.00;54909.16;10455901;28;20394;-73
2024/01/14 06:30:00;;;;;;;0.00;0.00;;;;;;;-145.06;100.00;54937.50;10455363;28;20033;-73
2024/01/14 06:35:00;;;;;;;0.00;0.00;;;;;;;-145.06;100.00;54937.50;10460620;28;20017;-73
2024/01/14 06:40:00;;;;;;;0.00;0.00;;;;;;;-145.06;100.00;54941.56;10455753;28;20032;-73
2024/01/14 06:45:01;;;;;;;0.00;0.00;;;;;;;-145.06;100.00;54929.41;10436804;28;20565;-73
2024/01/14 06:50:01;;;;;;;0.00;0.00;;;;;;;-145.06;100.00;54905.09;10460536;28;20108;-73
2024/01/14 06:55:04;;;;;;;0.00;0.00;;;;;;;-145.06;100.00;54935.47;10452843;28;20111;-73
2024/01/14 07:00:05;;;;;;;0.00;0.00;;;;;;;-145.06;100.00;54941.56;10435111;28;20033;-73
2024/01/14 07:05:08;;;;;;;0.00;0.00;;;;;;;-145.06;100.00;54915.22;10452149;28;20028;-74
2024/01/14 07:10:09;;;;;;;0.00;0.00;;;;;;;-145.06;100.00;54955.72;10451561;28;20151;-73
2024/01/14 07:15:09;;;;;;;0.00;0.00;;;;;;;-145.06;100.00;54951.69;10451316;28;20123;-74
2024/01/14 07:20:11;;;;;;;0.00;0.00;;;;;;;-145.06;100.00;54953.72;10453158;28;20032;-73
2024/01/14 07:25:11;;;;;;;0.00;0.00;;;;;;;-145.06;100.00;54953.72;10433280;28;20024;-73
2024/01/14 07:30:12;;;;;;;0.00;0.00;;;;;;;-145.06;100.00;54945.59;10454170;28;20028;-73
2024/01/14 07:35:12;;;;;;;0.00;0.00;;;;;;;-145.06;100.00;54984.09;10449698;28;20293;-73
2024/01/14 07:40:13;;;;;;;0.00;0.00;;;;;;;-145.06;100.00;54917.25;10451516;28;20021;-73
2024/01/14 07:45:14;;;;;;;0.00;0.00;;;;;;;-145.06;100.00;54937.50;10449003;28;20035;-73
2024/01/14 07:50:14;;;;;;;0.00;0.00;;;;;;;-145.06;100.00;54937.50;10451501;28;20027;-73
2024/01/14 07:55:14;;;;;;;0.00;0.00;;;;;;;-145.06;100.00;54973.97;10454502;28;20047;-73
2024/01/14 08:00:15;;;;;;;0.00;0.00;;;;;;;-145.06;100.00;54986.13;10450551;28;20036;-73
2024/01/14 08:05:17;;;;;;;0.00;0.00;;;;;;;-145.06;100.00;54949.66;10453223;28;20035;-73
2024/01/14 08:10:17;;;;;;;0.00;0.00;;;;;;;-145.06;100.00;54921.28;10449243;28;20039;-73
2024/01/14 08:15:18;;;;;;;0.00;0.00;;;;;;;-145.06;100.00;54923.31;10450289;28;20029;-73
2024/01/14 08:20:18;;;;;;;0.00;0.00;;;;;;;-145.06;100.00;54925.34;10460638;28;20025;-73
2024/01/14 08:25:18;;;;;;;0.00;0.00;;;;;;;-145.06;100.00;54884.84;10460436;28;20017;-73
2024/01/14 08:30:19;;;;;;;0.00;0.00;;;;;;;-145.06;100.00;54870.66;10458518;28;20029;-73
2024/01/14 08:35:19;;;;;;;0.00;0.00;;;;;;;-145.06;100.00;54856.47;10458592;28;20028;-73
2024/01/14 08:40:19;;;;;;;0.00;0.00;;;;;;;-145.06;100.00;54886.88;10456072;28;20012;-73
2024/01/14 08:45:20;;;;;;;0.00;0.00;;;;;;;-145.06;100.00;54888.88;10453672;28;20693;-73
2024/01/14 08:50:20;;;;;;;0.00;0.00;;;;;;;-145.06;100.00;54886.88;10453543;28;20025;-73
2024/01/14 08:55:21;;;;;;;0.00;0.00;;;;;;;-145.06;100.00;54876.72;10453936;28;20709;-73
2024/01/14 09:00:21;;;;;;;0.00;0.00;;;;;;;-145.06;100.00;54805.84;10452947;28;20039;-73
2024/01/14 09:05:22;;;;;;;0.00;0.00;;;;;;;-145.06;100.00;54795.72;10457503;28;20092;-73
2024/01/14 09:10:23;;;;;;;0.00;0.00;;;;;;;-145.06;100.00;54799.75;10452818;28;20053;-73
2024/01/14 09:15:23;;;;;;;0.00;0.00;;;;;;;-145.06;100.00;54775.44;10452126;28;20040;-73
2024/01/14 09:20:23;;;;;;;0.00;0.00;;;;;;;-145.06;100.00;54700.50;10453048;28;20040;-73
2024/01/14 09:25:23;;;;;;;0.00;0.00;;;;;;;-145.06;100.00;54708.59;10451720;28;20131;-73
2024/01/14 09:30:24;;;;;;;0.00;0.00;;;;;;;-145.06;100.00;54686.31;10451738;28;20560;-73
2024/01/14 09:35:24;;;;;;;0.00;0.00;;;;;;;-145.06;100.00;54710.63;10457200;28;20017;-73
2024/01/14 09:40:24;;;;;;;0.00;0.00;;;;;;;-145.06;100.00;54728.88;10451703;28;20024;-73
2024/01/14 09:45:25;;;;;;;0.00;0.00;;;;;;;-145.06;100.00;54765.31;10434326;28;20039;-73
2024/01/14 09:50:25;;;;;;;0.00;0.00;;;;;;;-145.06;100.00;54761.28;10440663;28;20349;-73
2024/01/14 09:55:26;;;;;;;0.00;0.00;;;;;;;-145.06;100.00;54763.31;10451618;28;20074;-73
2024/01/14 10:00:26;;;;;;;0.00;0.00;;;;;;;-145.06;100.00;54759.25;10451328;28;20029;-73
2024/01/14 10:05:27;;;;;;;0.00;0.00;;;;;;;-145.06;100.00;54708.59;10455717;28;20470;-73
2024/01/14 10:10:29;;;;;;;0.00;0.00;;;;;;;-145.06;100.00;54730.88;10452311;28;20028;-73
2024/01/14 10:15:32;;;;;;;0.00;0.00;;;;;;;-145.06;100.00;54745.06;10446989;28;20056;-73
2024/01/14 10:20:33;;;;;;;0.00;0.00;;;;;;;-145.06;100.00;54783.56;10450941;28;20744;-73
2024/01/14 10:25:33;;;;;;;0.00;0.00;;;;;;;-145.06;100.00;54783.56;10451127;28;20100;-73
2024/01/14 10:30:34;;;;;;;0.00;0.00;;;;;;;-145.06;100.00;54773.44;10451099;28;20012;-73
2024/01/14 10:35:35;;;;;;;0.00;0.00;;;;;;;-145.06;100.00;54787.59;10444303;28;20036;-73
2024/01/14 10:40:35;;;;;;;0.00;0.00;;;;;;;-145.06;100.00;54820.00;10453459;28;20383;-73
2024/01/14 10:45:35;;;;;;;0.00;0.00;;;;;;;-145.06;100.00;54805.84;10449380;28;20267;-73
2024/01/14 10:50:36;;;;;;;0.00;0.00;;;;;;;-145.06;100.00;54815.97;10454518;28;20048;-73
2024/01/14 10:55:41;;;;;;;0.00;0.00;;;;;;;-145.06;100.00;54783.56;10448439;28;20041;-73
2024/01/14 11:00:44;;;;;;;0.00;0.00;;;;;;;-145.06;100.00;54864.59;10448956;28;20122;-73
2024/01/14 11:05:45;;;;;;;0.00;0.00;;;;;;;-145.06;100.00;54872.69;10454005;28;20021;-73
2024/01/14 11:10:46;;;;;;;0.00;0.00;;;;;;;-145.06;100.00;54846.34;10449216;28;20043;-72
2024/01/14 11:15:58;;;;;;;0.00;0.00;;;;;;;-145.06;100.00;54862.56;10447694;28;20021;-73
2024/01/14 11:21:15;;;;;;;0.00;0.00;;;;;;;-145.06;100.00;54850.41;10448294;28;20486;-73
2024/01/14 11:26:16;;;;;;;0.00;0.00;;;;;;;-145.06;100.00;54856.47;10448237;28;20017;-73
2024/01/14 11:31:17;;;;;;;0.00;0.00;;;;;;;-145.06;100.00;54836.22;10453244;28;20411;-73
2024/01/14 11:36:56;;;;;;;0.00;0.00;;;;;;;-145.06;100.00;54860.53;10455321;28;20017;-73
2024/01/14 11:41:57;;;;;;;0.00;0.00;;;;;;;-145.06;100.00;54856.47;10447467;28;20561;-74
2024/01/14 11:46:57;;;;;;;0.00;0.00;;;;;;;-145.06;100.00;54807.88;10449158;28;20021;-73
2024/01/14 11:52:01;;;;;;;0.00;0.00;;;;;;;-145.06;100.00;54773.44;10448742;28;20406;-74
2024/01/14 11:57:21;;;;;;;0.00;0.00;;;;;;;-145.06;100.00;54755.19;10449431;28;20398;-74
2024/01/14 12:02:22;;;;;;;0.00;0.00;;;;;;;-145.06;100.00;54732.91;10437517;28;20017;-74
2024/01/14 12:07:22;;;;;;;0.00;0.00;;;;;;;-145.06;100.00;54743.03;10455455;28;20021;-74
2024/01/14 12:12:25;;;;;;;0.00;0.00;;;;;;;-145.06;100.00;54767.34;10449067;28;20497;-73
2024/01/14 12:17:26;;;;;;;0.00;0.00;;;;;;;-145.06;100.00;54718.72;10430986;28;20059;-73
2024/01/14 12:22:27;;;;;;;0.00;0.00;;;;;;;-145.06;100.00;54747.09;10453835;28;20023;-73
2024/01/14 12:27:28;;;;;;;0.00;0.00;;;;;;;-145.06;100.00;54688.34;10454457;28;20078;-73
2024/01/14 12:32:32;;;;;;;0.00;0.00;;;;;;;-145.06;100.00;54660.00;10454640;28;20039;-73
2024/01/14 12:37:33;;;;;;;0.00;0.00;;;;;;;-145.06;100.00;54682.28;10460573;28;20024;-73
2024/01/14 12:42:34;;;;;;;0.00;0.00;;;;;;;-145.06;100.00;54674.19;10448566;28;20071;-73
2024/01/14 12:47:34;;;;;;;0.00;0.00;;;;;;;-145.06;100.00;54690.38;10430243;28;20020;-73
2024/01/14 12:52:34;;;;;;;0.00;0.00;;;;;;;-145.06;100.00;54674.19;10456167;28;20424;-72
2024/01/14 12:57:44;;;;;;;0.00;0.00;;;;;;;-145.06;100.00;54702.53;10454578;28;20017;-72
2024/01/14 13:02:44;;;;;;;0.00;0.00;;;;;;;-145.06;100.00;54710.63;10452604;28;20021;-72
2024/01/14 13:07:44;;;;;;;0.00;0.00;;;;;;;-145.06;100.00;54700.50;10461184;28;20024;-72
2024/01/14 13:12:45;;;;;;;0.00;0.00;;;;;;;-145.06;100.00;54743.03;10457053;28;20029;-72
2024/01/14 13:17:46;;;;;;;0.00;0.00;;;;;;;-145.06;100.00;54739.00;10447254;28;20082;-72
2024/01/14 13:22:46;;;;;;;0.00;0.00;;;;;;;-145.06;100.00;54736.97;10454707;28;20086;-72
2024/01/14 13:27:47;;;;;;;0.00;0.00;;;;;;;-145.06;100.00;54704.56;10450526;28;20032;-73
2024/01/14 13:32:47;;;;;;;0.00;0.00;;;;;;;-145.06;100.00;54649.88;10461229;28;20029;-73
2024/01/14 13:37:48;;;;;;;0.00;0.00;;;;;;;-145.06;100.00;54666.06;10455970;28;20036;-73
2024/01/14 13:42:49;;;;;;;0.00;0.00;;;;;;;-145.06;100.00;54682.28;10463684;28;20033;-73
2024/01/14 13:47:50;;;;;;;0.00;0.00;;;;;;;-145.06;100.00;54726.84;10471139;28;20041;-72
2024/01/14 13:52:50;;;;;;;0.00;0.00;;;;;;;-145.06;100.00;54720.75;10457215;28;20025;-72
2024/01/14 13:57:52;;;;;;;0.00;0.00;;;;;;;-145.06;100.00;54749.13;10453742;28;20021;-73
2024/01/14 14:02:52;;;;;;;0.00;0.00;;;;;;;-145.06;100.00;54787.59;10466024;28;20013;-73
2024/01/14 14:07:53;;;;;;;0.00;0.00;;;;;;;-145.06;100.00;54789.63;10465096;28;20020;-73
2024/01/14 14:12:53;;;;;;;0.00;0.00;;;;;;;-145.06;100.00;54815.97;10458690;28;20071;-72
2024/01/14 14:17:53;;;;;;;0.00;0.00;;;;;;;-145.06;100.00;54874.72;10451298;28;20267;-73
2024/01/14 14:22:54;;;;;;;0.00;0.00;;;;;;;-145.06;100.00;54842.31;10455522;28;20267;-71
2024/01/14 14:27:54;;;;;;;0.00;0.00;;;;;;;-145.06;100.00;54838.25;10458829;28;20055;-71
2024/01/14 14:32:54;;;;;;;0.00;0.00;;;;;;;-145.06;100.00;54846.34;10454434;28;20029;-72
2024/01/14 14:37:54;;;;;;;0.00;0.00;;;;;;;-145.06;100.00;54826.09;10460481;28;20027;-72
2024/01/14 14:42:55;;;;;;;0.00;0.00;;;;;;;-145.06;100.00;54880.78;10455535;28;20020;-72
2024/01/14 14:47:55;;;;;;;0.00;0.00;;;;;;;-145.06;100.00;54917.25;10454913;28;20017;-73
2024/01/14 14:52:55;;;;;;;0.00;0.00;;;;;;;-145.06;100.00;54923.31;10454014;28;20017;-73
2024/01/14 14:57:56;;;;;;;0.00;0.00;;;;;;;-145.06;100.00;54986.13;10450740;28;20090;-73
2024/01/14 15:02:57;;;;;;;0.00;0.00;;;;;;;-145.06;100.00;54996.25;10450472;28;20423;-73
2024/01/14 15:07:57;;;;;;;0.00;0.00;;;;;;;-145.06;100.00;55050.94;10454157;28;20024;-72
2024/01/14 15:12:58;;;;;;;0.00;0.00;;;;;;;-145.06;100.00;55117.78;10452432;28;20021;-73
2024/01/14 15:17:58;;;;;;;0.00;0.00;;;;;;;-145.06;100.00;55138.06;10452984;28;20025;-73
2024/01/14 15:23:00;;;;;;;0.00;0.00;;;;;;;-145.06;100.00;55127.94;10437091;28;20048;-72
2024/01/14 15:28:00;;;;;;;0.00;0.00;;;;;;;-145.06;100.00;55134.00;10449398;28;20021;-72
2024/01/14 15:33:00;;;;;;;0.00;0.00;;;;;;;-145.06;100.00;55087.41;10456209;28;20071;-74
2024/01/14 15:38:01;;;;;;;0.00;0.00;;;;;;;-145.06;100.00;55075.25;10454973;28;20021;-73
2024/01/14 15:43:01;;;;;;;0.00;0.00;;;;;;;-145.06;100.00;55085.38;10471808;28;20009;-75
2024/01/14 15:48:02;;;;;;;0.00;0.00;;;;;;;-145.06;100.00;55075.25;10446222;28;20024;-79
2024/01/14 15:53:02;;;;;;;0.00;0.00;;;;;;;-145.06;100.00;55052.97;10440932;28;20013;-77
2024/01/14 15:58:03;;;;;;;0.00;0.00;;;;;;;-145.06;100.00;55038.78;10452197;28;20021;-76
2024/01/14 16:03:03;;;;;;;0.00;0.00;;;;;;;-145.06;100.00;55012.47;10455709;28;20052;-76
2024/01/14 16:08:04;;;;;;;0.00;0.00;;;;;;;-145.06;100.00;55048.91;10454276;28;20151;-77
2024/01/14 16:13:07;;;;;;;0.00;0.00;;;;;;;-145.06;100.00;55014.47;10459948;28;20013;-77
2024/01/14 16:18:08;;;;;;;0.00;0.00;;;;;;;-145.06;100.00;55125.91;10458673;28;20040;-77
2024/01/14 16:23:08;;;;;;;0.00;0.00;;;;;;;-145.06;100.00;55158.31;10437588;28;20095;-77
2024/01/14 16:28:09;;;;;;;0.00;0.00;;;;;;;-145.06;100.00;55148.19;10432650;28;20049;-77
2024/01/14 16:33:10;;;;;;;0.00;0.00;;;;;;;-145.06;100.00;55162.38;10449180;28;20025;-77
2024/01/14 16:38:10;;;;;;;0.00;0.00;;;;;;;-145.06;100.00;55172.50;10453567;28;20025;-77
2024/01/14 16:43:10;;;;;;;0.00;0.00;;;;;;;-145.06;100.00;55174.53;10459502;28;20544;-77
2024/01/14 16:48:12;;;;;;;0.00;0.00;;;;;;;-145.06;100.00;55136.03;10459520;28;20294;-77
2024/01/14 16:53:14;;;;;;;0.00;0.00;;;;;;;-145.06;100.00;55160.34;10441919;28;20465;-77
2024/01/14 16:58:14;;;;;;;0.00;0.00;;;;;;;-145.06;100.00;55180.59;10461333;28;20027;-77
2024/01/14 17:03:15;;;;;;;0.10;0.10;;;;;;;-145.06;100.00;55178.56;10464264;28;20351;-77
2024/01/14 17:08:15;;;;;;;0.00;0.00;;;;;;;-145.06;100.00;55188.69;10465222;28;20266;-77
2024/01/14 17:13:17;;;;;;;0.00;0.00;;;;;;;-145.06;100.00;55182.63;10460901;28;20274;-77
2024/01/14 17:18:17;;;;;;;0.00;0.00;;;;;;;-145.06;100.00;55164.38;10456774;28;20024;-75
2024/01/14 17:23:18;;;;;;;0.00;0.00;;;;;;;-145.06;100.00;55200.84;10463802;28;20020;-75
2024/01/14 17:28:18;;;;;;;0.00;0.00;;;;;;;-145.06;100.00;55204.91;10460860;28;20486;-76
2024/01/14 17:33:18;;;;;;;0.00;0.00;;;;;;;-145.06;100.00;55188.69;10465900;28;20070;-76
2024/01/14 17:38:19;;;;;;;0.00;0.00;;;;;;;-145.06;100.00;55184.66;10457238;28;20021;-77
2024/01/14 17:43:19;;;;;;;0.00;0.00;;;;;;;-145.06;100.00;55131.97;10460638;28;20426;-77
2024/01/14 17:48:19;;;;;;;0.00;0.00;;;;;;;-145.06;100.00;55164.38;10452826;28;20107;-77
2024/01/14 17:53:21;;;;;;;0.00;0.00;;;;;;;-145.06;100.00;55148.19;10435139;28;20045;-77
2024/01/14 17:58:21;;;;;;;0.00;0.00;;;;;;;-145.06;100.00;55146.16;10435631;28;20077;-77
2024/01/14 18:03:22;;;;;;;0.00;0.00;;;;;;;-145.06;100.00;55113.75;10456760;28;20389;-77
2024/01/14 18:08:22;;;;;;;0.00;0.00;;;;;;;-145.06;100.00;55081.34;10456850;28;20521;-77
2024/01/14 18:13:24;;;;;;;0.00;0.00;;;;;;;-145.06;100.00;55067.16;10443288;28;20032;-76
2024/01/14 18:18:24;;;;;;;0.00;0.00;;;;;;;-145.06;100.00;55089.44;10457172;28;20029;-77
2024/01/14 18:23:24;;;;;;;0.00;0.00;;;;;;;-145.06;100.00;55115.78;10453362;28;20028;-76
2024/01/14 18:28:25;;;;;;;0.00;0.00;;;;;;;-145.06;100.00;55081.34;10452500;28;20047;-76
2024/01/14 18:33:25;;;;;;;0.00;0.00;;;;;;;-145.06;100.00;55164.38;10455861;28;20017;-76
2024/01/14 18:38:27;;;;;;;0.00;0.00;;;;;;;-145.06;100.00;55164.38;10455701;28;20470;-76
2024/01/14 18:43:28;;;;;;;0.00;0.00;;;;;;;-145.06;100.00;55217.06;10433994;28;20508;-76
2024/01/14 18:48:28;;;;;;;0.00;0.00;;;;;;;-145.06;100.00;55257.56;10452084;28;20029;-76
2024/01/14 18:53:28;;;;;;;0.00;0.00;;;;;;;-145.06;100.00;55245.41;10451819;28;20557;-76
2024/01/14 18:58:29;;;;;;;0.00;0.00;;;;;;;-145.06;100.00;55227.19;10437809;28;20025;-76
2024/01/14 19:03:29;;;;;;;0.00;0.00;;;;;;;-145.06;100.00;55253.53;10456319;28;20025;-76
2024/01/14 19:08:29;;;;;;;0.00;0.00;;;;;;;-145.06;100.00;55184.66;10451090;28;20263;-76
2024/01/14 19:13:30;;;;;;;0.00;0.00;;;;;;;-145.06;100.00;55186.66;10432937;28;20033;-76
2024/01/14 19:18:30;;;;;;;0.00;0.00;;;;;;;-145.06;100.00;55111.72;10437396;28;20021;-77
2024/01/14 19:23:32;;;;;;;0.00;0.00;;;;;;;-145.06;100.00;55107.66;10453776;28;20474;-77
2024/01/14 19:28:32;;;;;;;0.00;0.00;;;;;;;-145.06;100.00;55134.00;10450093;28;20367;-77
2024/01/14 19:33:33;;;;;;;0.00;0.00;;;;;;;-145.06;100.00;55140.06;10459696;28;20115;-77
2024/01/14 19:38:34;;;;;;;0.00;0.00;;;;;;;-145.06;100.00;55213.00;10441568;28;20033;-77
2024/01/14 19:43:34;;;;;;;0.00;0.00;;;;;;;-145.06;100.00;55202.88;10437791;28;20029;-77
2024/01/14 19:48:35;;;;;;;0.00;0.00;;;;;;;-145.06;100.00;55210.97;10453280;28;20091;-77
2024/01/14 19:53:36;;;;;;;0.00;0.00;;;;;;;-145.06;100.00;55202.88;10456070;28;20287;-77
2024/01/14 19:58:36;;;;;;;0.00;0.00;;;;;;;-145.06;100.00;55253.53;10450898;28;20017;-77
2024/01/14 20:03:37;;;;;;;0.00;0.00;;;;;;;-145.06;100.00;55298.09;10456337;28;20510;-77
2024/01/14 20:08:37;;;;;;;0.00;0.00;;;;;;;-145.06;100.00;55263.66;10460157;28;20123;-77
2024/01/14 20:13:37;;;;;;;0.00;0.00;;;;;;;-145.06;100.00;55249.47;10459886;28;20017;-77
2024/01/14 20:18:37;;;;;;;0.00;0.00;;;;;;;-145.06;100.00;55253.53;10462366;28;20017;-75
2024/01/14 20:23:38;;;;;;;0.00;0.00;;;;;;;-145.06;100.00;55231.25;10457918;28;20017;-76
2024/01/14 20:28:38;;;;;;;0.00;0.00;;;;;;;-145.06;100.00;55283.91;10459311;28;20267;-76
2024/01/14 20:33:39;;;;;;;0.00;0.00;;;;;;;-145.06;100.00;55225.16;10439423;28;20704;-76
2024/01/14 20:38:39;;;;;;;0.00;0.00;;;;;;;-145.06;100.00;55267.72;10455870;28;20039;-76
2024/01/14 20:43:39;;;;;;;0.00;0.00;;;;;;;-145.06;100.00;55249.47;10457396;28;20021;-76
2024/01/14 20:48:40;;;;;;;0.00;0.00;;;;;;;-145.06;100.00;55206.94;10461992;28;20809;-77
2024/01/14 20:53:40;;;;;;;0.00;0.00;;;;;;;-145.06;100.00;55273.78;10458161;28;20037;-77
2024/01/14 20:58:40;;;;;;;0.00;0.00;;;;;;;-145.06;100.00;55283.91;10459394;28;20025;-77
2024/01/14 21:03:41;;;;;;;0.00;0.00;;;;;;;-145.06;100.00;55233.25;10468321;28;20482;-77
2024/01/14 21:08:41;;;;;;;0.00;0.00;;;;;;;-145.06;100.00;55229.22;10469502;28;20036;-77
2024/01/14 21:13:41;;;;;;;0.00;0.00;;;;;;;-145.06;100.00;55172.50;10454767;28;20025;-76
2024/01/14 21:18:42;;;;;;;0.00;0.00;;;;;;;-145.06;100.00;55144.13;10458231;28;20405;-75
2024/01/14 21:23:42;;;;;;;0.00;0.00;;;;;;;-145.06;100.00;55121.84;10460336;28;20044;-75
2024/01/14 21:28:43;;;;;;;0.00;0.00;;;;;;;-145.06;100.00;55215.03;10454340;28;20386;-76
2024/01/14 21:33:43;;;;;;;0.00;0.00;;;;;;;-145.06;100.00;55223.13;10454402;28;20482;-75
2024/01/14 21:38:44;;;;;;;0.00;0.00;;;;;;;-145.06;100.00;55261.63;10443549;28;20017;-75
2024/01/14 21:43:44;;;;;;;0.00;0.00;;;;;;;-145.06;100.00;55285.94;10457918;28;20390;-76
2024/01/14 21:48:44;;;;;;;0.00;0.00;;;;;;;-145.06;100.00;55294.03;10453852;28;20490;-75
2024/01/14 21:53:45;;;;;;;0.00;0.00;;;;;;;-145.06;100.00;55330.50;10459252;28;20443;-76
2024/01/14 21:58:45;;;;;;;0.00;0.00;;;;;;;-145.06;100.00;55350.75;10453229;28;20294;-76
2024/01/14 22:03:46;;;;;;;0.00;0.00;;;;;;;-145.06;100.00;55371.03;10458700;28;20056;-76
2024/01/14 22:08:46;;;;;;;0.00;0.00;;;;;;;-145.06;100.00;55375.06;10453071;28;20025;-76
2024/01/14 22:13:46;;;;;;;0.00;0.00;;;;;;;-145.06;100.00;55362.91;10452738;28;20034;-76
2024/01/14 22:18:47;;;;;;;0.00;0.00;;;;;;;-145.06;100.00;55358.88;10452430;28;20497;-75
2024/01/14 22:23:47;;;;;;;0.00;0.00;;;;;;;-145.06;100.00;55322.41;10452692;28;20017;-76
2024/01/14 22:28:47;;;;;;;0.00;0.00;;;;;;;-145.06;100.00;55298.09;10452242;28;20024;-76
2024/01/14 22:33:50;;;;;;;0.00;0.00;;;;;;;-145.06;100.00;55310.25;10442141;28;20391;-76